createdAt,value
2019-05-05T00:00:30.396Z,5.00
2019-05-05T00:03:01.456Z,4.90
2019-05-05T00:05:32.778Z,4.90
2019-05-05T00:07:59.297Z,4.90
2019-05-05T00:10:34.748Z,4.90
2019-05-05T00:13:11.956Z,4.80
2019-05-05T00:15:40.217Z,4.80
2019-05-05T00:18:06.738Z,4.80
2019-05-05T00:20:34.400Z,4.70
2019-05-05T00:23:00.989Z,4.60
2019-05-05T00:25:27.340Z,4.60
2019-05-05T00:27:54.588Z,4.50
2019-05-05T00:30:21.132Z,4.30
2019-05-05T00:32:47.513Z,4.40
2019-05-05T00:35:14.883Z,4.30
2019-05-05T00:37:41.468Z,4.30
2019-05-05T00:40:08.755Z,4.10
2019-05-05T00:42:35.321Z,4.00
2019-05-05T00:45:05.640Z,3.80
2019-05-05T00:47:42.539Z,3.80
2019-05-05T00:50:11.862Z,3.80
2019-05-05T00:52:38.242Z,3.80
2019-05-05T00:55:06.791Z,3.70
2019-05-05T00:57:34.769Z,3.70
2019-05-05T01:00:15.102Z,3.60
2019-05-05T01:02:44.918Z,3.60
2019-05-05T01:05:16.496Z,3.40
2019-05-05T01:07:44.379Z,3.30
2019-05-05T01:10:11.329Z,3.20
2019-05-05T01:12:37.848Z,3.10
2019-05-05T01:15:05.020Z,3.00
2019-05-05T01:17:31.404Z,2.90
2019-05-05T01:20:03.089Z,2.90
2019-05-05T01:22:26.311Z,2.80
2019-05-05T01:24:52.730Z,2.80
2019-05-05T01:27:19.516Z,2.80
2019-05-05T01:29:45.868Z,2.80
2019-05-05T01:32:15.204Z,2.90
2019-05-05T01:34:45.551Z,2.80
2019-05-05T01:37:30.410Z,2.60
2019-05-05T01:39:58.687Z,2.50
2019-05-05T01:42:25.040Z,2.50
2019-05-05T01:44:51.375Z,2.50
2019-05-05T01:47:17.735Z,2.60
2019-05-05T01:49:45.395Z,2.60
2019-05-05T01:52:12.009Z,2.60
2019-05-05T01:54:38.402Z,2.60
2019-05-05T01:57:05.571Z,2.60
2019-05-05T01:59:32.405Z,2.60
2019-05-05T02:01:58.870Z,2.50
2019-05-05T02:04:25.287Z,2.40
2019-05-05T02:06:51.638Z,2.30
2019-05-05T02:09:18.040Z,2.30
2019-05-05T02:11:45.319Z,2.20
2019-05-05T02:14:11.747Z,2.10
2019-05-05T02:16:38.182Z,2.10
2019-05-05T02:19:05.129Z,2.10
2019-05-05T02:21:31.642Z,2.00
2019-05-05T02:23:57.974Z,2.00
2019-05-05T02:26:24.621Z,2.00
2019-05-05T02:29:07.755Z,2.00
2019-05-05T02:31:55.027Z,1.90
2019-05-05T02:34:20.730Z,1.80
2019-05-05T02:36:47.286Z,1.80
2019-05-05T02:39:15.989Z,1.70
2019-05-05T02:41:45.070Z,1.80
2019-05-05T02:44:11.016Z,1.70
2019-05-05T02:46:45.377Z,1.70
2019-05-05T02:49:14.941Z,1.80
2019-05-05T02:51:44.538Z,1.70
2019-05-05T02:54:11.084Z,1.70
2019-05-05T02:56:49.444Z,1.60
2019-05-05T02:59:23.676Z,1.60
2019-05-05T03:01:55.222Z,1.60
2019-05-05T03:04:24.310Z,1.50
2019-05-05T03:06:54.243Z,1.50
2019-05-05T03:09:24.335Z,1.50
2019-05-05T03:11:54.138Z,1.50
2019-05-05T03:14:23.741Z,1.40
2019-05-05T03:16:50.220Z,1.40
2019-05-05T03:19:18.966Z,1.40
2019-05-05T03:21:45.579Z,1.30
2019-05-05T03:24:14.200Z,1.30
2019-05-05T03:26:40.644Z,1.20
2019-05-05T03:29:10.005Z,1.30
2019-05-05T03:31:36.585Z,1.30
2019-05-05T03:34:05.916Z,1.30
2019-05-05T03:36:33.917Z,1.30
2019-05-05T03:39:01.360Z,1.30
2019-05-05T03:41:40.451Z,1.30
2019-05-05T03:44:14.011Z,1.20
2019-05-05T03:46:40.542Z,1.40
2019-05-05T03:49:06.990Z,1.60
2019-05-05T03:51:34.495Z,1.60
2019-05-05T03:54:01.782Z,1.70
2019-05-05T03:56:28.293Z,1.60
2019-05-05T03:58:58.232Z,1.60
2019-05-05T04:01:38.563Z,1.60
2019-05-05T04:04:24.602Z,1.50
2019-05-05T04:06:57.962Z,1.50
2019-05-05T04:09:25.015Z,1.60
2019-05-05T04:11:53.775Z,1.60
2019-05-05T04:14:20.045Z,1.50
2019-05-05T04:16:51.296Z,1.70
2019-05-05T04:19:19.629Z,1.80
2019-05-05T04:21:45.957Z,1.90
2019-05-05T04:24:14.445Z,2.00
2019-05-05T04:26:40.537Z,2.10
2019-05-05T04:29:06.916Z,2.10
2019-05-05T04:31:34.549Z,2.20
2019-05-05T04:34:01.007Z,2.30
2019-05-05T04:36:28.345Z,2.40
2019-05-05T04:38:54.758Z,2.50
2019-05-05T04:41:21.184Z,2.70
2019-05-05T04:43:47.610Z,2.80
2019-05-05T04:46:14.158Z,3.00
2019-05-05T04:48:43.892Z,3.00
2019-05-05T04:51:13.894Z,3.20
2019-05-05T04:53:58.595Z,3.20
2019-05-05T04:56:24.981Z,3.30
2019-05-05T04:58:51.365Z,3.40
2019-05-05T05:01:17.781Z,3.50
2019-05-05T05:03:54.794Z,3.60
2019-05-05T05:06:23.715Z,3.80
2019-05-05T05:08:50.252Z,4.00
2019-05-05T05:11:16.698Z,4.10
2019-05-05T05:13:44.006Z,4.20
2019-05-05T05:16:10.533Z,4.40
2019-05-05T05:18:36.914Z,4.40
2019-05-05T05:21:03.966Z,4.50
2019-05-05T05:23:30.393Z,4.60
2019-05-05T05:25:56.786Z,4.70
2019-05-05T05:28:23.676Z,4.80
2019-05-05T05:30:50.246Z,5.00
2019-05-05T05:33:16.570Z,5.20
2019-05-05T05:35:44.103Z,5.20
2019-05-05T05:38:10.601Z,5.40
2019-05-05T05:40:51.217Z,5.50
2019-05-05T05:43:19.523Z,5.70
2019-05-05T05:45:50.562Z,5.90
2019-05-05T05:48:23.555Z,6.10
2019-05-05T05:50:54.760Z,6.20
2019-05-05T05:53:21.111Z,6.30
2019-05-05T05:55:47.459Z,6.50
2019-05-05T05:58:14.174Z,6.70
2019-05-05T06:00:44.097Z,7.00
2019-05-05T06:03:10.076Z,7.20
2019-05-05T06:05:36.508Z,7.40
2019-05-05T06:08:04.537Z,7.80
2019-05-05T06:10:31.142Z,8.20
2019-05-05T06:12:57.563Z,8.60
2019-05-05T06:15:24.559Z,9.10
2019-05-05T06:17:51.058Z,9.60
2019-05-05T06:20:17.435Z,10.10
2019-05-05T06:22:44.690Z,10.60
2019-05-05T06:25:11.227Z,11.20
2019-05-05T06:27:37.538Z,11.60
2019-05-05T06:30:05.592Z,11.50
2019-05-05T06:32:34.130Z,11.50
2019-05-05T06:35:00.097Z,11.30
2019-05-05T06:37:27.526Z,11.30
2019-05-05T06:39:55.812Z,11.10
2019-05-05T06:42:24.090Z,10.90
2019-05-05T06:44:55.257Z,10.90
2019-05-05T06:47:23.699Z,11.60
2019-05-05T06:49:50.200Z,12.30
2019-05-05T06:52:16.535Z,12.60
2019-05-05T06:54:43.828Z,12.70
2019-05-05T06:57:10.305Z,13.20
2019-05-05T06:59:36.697Z,12.90
2019-05-05T07:02:04.208Z,12.10
2019-05-05T07:04:31.041Z,11.50
2019-05-05T07:06:57.518Z,11.70
2019-05-05T07:09:24.547Z,12.70
2019-05-05T07:11:51.059Z,13.10
2019-05-05T07:14:17.697Z,14.30
2019-05-05T07:16:44.091Z,15.10
2019-05-05T07:19:10.447Z,15.20
2019-05-05T07:21:36.848Z,15.20
2019-05-05T07:24:04.029Z,14.80
2019-05-05T07:26:30.541Z,14.20
2019-05-05T07:28:56.897Z,13.50
2019-05-05T07:31:23.936Z,12.70
2019-05-05T07:33:50.531Z,12.60
2019-05-05T07:36:37.115Z,13.20
2019-05-05T07:39:05.748Z,13.80
2019-05-05T07:41:34.075Z,14.00
2019-05-05T07:44:00.973Z,14.80
2019-05-05T07:46:27.350Z,15.80
2019-05-05T07:48:54.495Z,16.60
2019-05-05T07:51:20.961Z,16.40
2019-05-05T07:53:47.337Z,16.60
2019-05-05T07:56:14.477Z,17.50
2019-05-05T07:58:41.097Z,18.00
2019-05-05T08:01:07.484Z,18.50
2019-05-05T08:03:33.999Z,18.90
2019-05-05T08:06:00.384Z,18.90
2019-05-05T08:08:26.820Z,18.80
2019-05-05T08:10:54.179Z,19.10
2019-05-05T08:13:20.697Z,18.90
2019-05-05T08:15:59.175Z,18.50
2019-05-05T08:18:37.400Z,17.90
2019-05-05T08:21:05.721Z,18.70
2019-05-05T08:23:45.837Z,18.70
2019-05-05T08:26:16.689Z,18.70
2019-05-05T08:28:45.029Z,18.50
2019-05-05T08:31:16.413Z,18.40
2019-05-05T08:33:44.210Z,18.10
2019-05-05T08:36:11.562Z,18.30
2019-05-05T08:38:37.961Z,17.60
2019-05-05T08:41:04.682Z,16.60
2019-05-05T08:43:31.194Z,16.30
2019-05-05T08:45:57.595Z,15.60
2019-05-05T08:48:24.617Z,16.00
2019-05-05T08:50:51.324Z,16.80
2019-05-05T08:53:18.457Z,17.50
2019-05-05T08:55:44.833Z,18.40
2019-05-05T08:58:11.447Z,18.60
2019-05-05T09:00:38.424Z,19.00
2019-05-05T09:03:04.927Z,19.70
2019-05-05T09:05:34.513Z,20.10
2019-05-05T09:08:01.178Z,20.30
2019-05-05T09:10:27.631Z,20.20
2019-05-05T09:12:54.370Z,20.50
2019-05-05T09:15:20.928Z,20.90
2019-05-05T09:17:47.347Z,21.50
2019-05-05T09:20:14.164Z,21.30
2019-05-05T09:22:40.568Z,21.10
2019-05-05T09:25:14.958Z,20.70
2019-05-05T09:27:47.474Z,20.10
2019-05-05T09:30:17.777Z,19.70
2019-05-05T09:32:44.143Z,19.50
2019-05-05T09:35:10.761Z,19.60
2019-05-05T09:37:37.362Z,19.80
2019-05-05T09:40:04.893Z,20.00
2019-05-05T09:42:34.050Z,20.20
2019-05-05T09:45:00.464Z,19.50
2019-05-05T09:47:26.966Z,18.60
2019-05-05T09:49:54.965Z,18.90
2019-05-05T09:52:24.280Z,19.00
2019-05-05T09:54:50.445Z,19.60
2019-05-05T09:57:17.405Z,19.90
2019-05-05T09:59:44.358Z,20.00
2019-05-05T10:02:11.053Z,20.00
2019-05-05T10:04:37.484Z,20.40
2019-05-05T10:07:04.570Z,20.00
2019-05-05T10:09:31.051Z,19.80
2019-05-05T10:11:57.416Z,19.30
2019-05-05T10:14:23.827Z,19.70
2019-05-05T10:16:50.253Z,20.80
2019-05-05T10:19:16.599Z,20.40
2019-05-05T10:21:44.396Z,20.80
2019-05-05T10:24:27.717Z,21.00
2019-05-05T10:26:44.561Z,21.10
2019-05-05T10:29:10.966Z,21.80
2019-05-05T10:31:37.349Z,22.10
2019-05-05T10:34:08.190Z,21.10
2019-05-05T10:36:34.555Z,20.00
2019-05-05T10:39:05.885Z,18.90
2019-05-05T10:41:33.773Z,18.50
2019-05-05T10:44:00.251Z,18.60
2019-05-05T10:46:26.637Z,18.10
2019-05-05T10:48:53.797Z,17.90
2019-05-05T10:51:20.284Z,17.80
2019-05-05T10:53:46.643Z,18.00
2019-05-05T10:56:13.647Z,18.20
2019-05-05T10:58:40.251Z,18.10
2019-05-05T11:01:06.702Z,17.70
2019-05-05T11:03:34.299Z,17.50
2019-05-05T11:06:01.111Z,17.40
2019-05-05T11:08:30.536Z,17.30
2019-05-05T11:10:56.203Z,17.30
2019-05-05T11:13:23.986Z,17.00
2019-05-05T11:15:50.543Z,16.70
2019-05-05T11:18:17.023Z,16.40
2019-05-05T11:20:44.708Z,16.20
2019-05-05T11:23:11.378Z,16.40
2019-05-05T11:25:37.730Z,16.50
2019-05-05T11:28:06.012Z,16.70
2019-05-05T11:30:41.771Z,17.30
2019-05-05T11:33:15.897Z,17.60
2019-05-05T11:35:47.272Z,17.20
2019-05-05T11:38:14.228Z,16.90
2019-05-05T11:40:40.616Z,17.20
2019-05-05T11:43:06.951Z,17.20
2019-05-05T11:45:34.551Z,16.70
2019-05-05T11:48:00.887Z,16.30
2019-05-05T11:50:27.280Z,16.10
2019-05-05T11:52:54.499Z,15.80
2019-05-05T11:55:22.144Z,15.70
2019-05-05T11:57:48.560Z,15.80
2019-05-05T12:00:15.251Z,15.80
2019-05-05T12:02:41.612Z,15.70
2019-05-05T12:05:08.182Z,15.50
2019-05-05T12:07:34.591Z,15.40
2019-05-05T12:10:00.909Z,15.40
2019-05-05T12:12:27.387Z,15.50
2019-05-05T12:14:54.188Z,15.50
2019-05-05T12:17:28.131Z,15.50
2019-05-05T12:19:54.634Z,15.60
2019-05-05T12:22:21.040Z,16.80
2019-05-05T12:25:04.120Z,18.30
2019-05-05T12:27:33.877Z,19.80
2019-05-05T12:30:03.249Z,20.60
2019-05-05T12:32:29.627Z,21.10
2019-05-05T12:34:56.055Z,21.50
2019-05-05T12:37:23.663Z,21.20
2019-05-05T12:39:50.230Z,19.60
2019-05-05T12:42:16.617Z,18.50
2019-05-05T12:44:44.901Z,18.30
2019-05-05T12:47:14.432Z,18.60
2019-05-05T12:49:40.962Z,19.50
2019-05-05T12:52:07.383Z,19.90
2019-05-05T12:54:33.771Z,20.40
2019-05-05T12:57:00.169Z,20.70
2019-05-05T12:59:26.525Z,19.80
2019-05-05T13:01:54.670Z,18.80
2019-05-05T13:04:21.198Z,18.20
2019-05-05T13:06:47.592Z,17.50
2019-05-05T13:09:16.028Z,17.40
2019-05-05T13:11:43.649Z,16.70
2019-05-05T13:14:10.322Z,16.10
2019-05-05T13:16:37.162Z,16.20
2019-05-05T13:19:05.474Z,17.20
2019-05-05T13:21:46.248Z,17.50
2019-05-05T13:24:20.789Z,17.20
2019-05-05T13:26:49.187Z,16.50
2019-05-05T13:29:15.584Z,16.60
2019-05-05T13:31:44.070Z,17.50
2019-05-05T13:34:10.408Z,18.30
2019-05-05T13:36:36.866Z,19.40
2019-05-05T13:39:06.020Z,20.00
2019-05-05T13:41:34.028Z,19.40
2019-05-05T13:44:04.372Z,18.70
2019-05-05T13:46:35.050Z,19.40
2019-05-05T13:49:20.198Z,19.70
2019-05-05T13:51:46.573Z,19.20
2019-05-05T13:54:13.609Z,18.30
2019-05-05T13:56:40.210Z,17.70
2019-05-05T13:59:06.648Z,17.00
2019-05-05T14:01:34.200Z,16.40
2019-05-05T14:04:01.130Z,16.70
2019-05-05T14:06:27.621Z,16.70
2019-05-05T14:08:54.212Z,16.60
2019-05-05T14:11:20.811Z,17.00
2019-05-05T14:13:48.509Z,17.90
2019-05-05T14:16:15.695Z,18.10
2019-05-05T14:18:42.681Z,18.70
2019-05-05T14:21:09.622Z,19.20
2019-05-05T14:23:38.721Z,19.20
2019-05-05T14:26:05.911Z,18.50
2019-05-05T14:28:33.996Z,18.10
2019-05-05T14:31:03.527Z,17.90
2019-05-05T14:33:34.032Z,18.70
2019-05-05T14:36:09.368Z,19.20
2019-05-05T14:38:44.461Z,18.50
2019-05-05T14:41:13.502Z,17.80
2019-05-05T14:43:40.263Z,17.10
2019-05-05T14:46:07.406Z,16.10
2019-05-05T14:48:37.076Z,15.60
2019-05-05T14:51:04.017Z,15.30
2019-05-05T14:53:31.809Z,14.90
2019-05-05T14:55:58.493Z,14.60
2019-05-05T14:58:24.908Z,14.50
2019-05-05T15:00:52.411Z,14.50
2019-05-05T15:03:18.824Z,14.60
2019-05-05T15:05:56.279Z,14.50
2019-05-05T15:08:41.412Z,14.70
2019-05-05T15:11:23.469Z,14.90
2019-05-05T15:13:49.911Z,14.80
2019-05-05T15:16:16.312Z,14.90
2019-05-05T15:18:42.782Z,15.00
2019-05-05T15:21:09.291Z,14.80
2019-05-05T15:23:35.750Z,14.50
2019-05-05T15:26:04.360Z,14.30
2019-05-05T15:28:30.685Z,14.10
2019-05-05T15:30:57.087Z,13.90
2019-05-05T15:33:24.661Z,13.80
2019-05-05T15:35:51.513Z,13.80
2019-05-05T15:38:17.920Z,13.80
2019-05-05T15:40:44.666Z,14.00
2019-05-05T15:43:14.246Z,13.80
2019-05-05T15:45:40.848Z,13.60
2019-05-05T15:48:07.225Z,13.60
2019-05-05T15:50:33.693Z,13.50
2019-05-05T15:53:00.126Z,13.50
2019-05-05T15:55:26.502Z,13.40
2019-05-05T15:57:52.955Z,13.30
2019-05-05T16:00:20.254Z,13.20
2019-05-05T16:02:46.713Z,13.20
2019-05-05T16:05:13.867Z,13.20
2019-05-05T16:07:40.661Z,13.30
2019-05-05T16:10:08.862Z,13.20
2019-05-05T16:12:39.317Z,13.10
2019-05-05T16:15:13.719Z,13.10
2019-05-05T16:17:47.580Z,13.10
2019-05-05T16:20:19.153Z,13.20
2019-05-05T16:22:47.468Z,13.30
2019-05-05T16:25:15.068Z,13.40
2019-05-05T16:27:44.003Z,13.40
2019-05-05T16:30:14.467Z,13.40
2019-05-05T16:32:40.824Z,13.40
2019-05-05T16:35:08.397Z,13.50
2019-05-05T16:37:34.902Z,13.50
2019-05-05T16:40:03.476Z,13.40
2019-05-05T16:42:30.840Z,13.40
2019-05-05T16:44:57.309Z,13.30
2019-05-05T16:47:24.471Z,13.20
2019-05-05T16:49:51.040Z,13.10
2019-05-05T16:52:19.381Z,13.10
2019-05-05T16:55:05.812Z,12.90
2019-05-05T16:57:34.776Z,12.90
2019-05-05T17:00:01.805Z,12.70
2019-05-05T17:02:28.565Z,12.80
2019-05-05T17:04:54.938Z,12.80
2019-05-05T17:07:21.288Z,12.80
2019-05-05T17:09:47.716Z,12.90
2019-05-05T17:12:14.270Z,13.00
2019-05-05T17:15:00.926Z,12.90
2019-05-05T17:17:29.210Z,13.00
2019-05-05T17:19:57.514Z,12.90
2019-05-05T17:22:28.621Z,12.80
2019-05-05T17:24:56.017Z,12.70
2019-05-05T17:27:23.638Z,12.50
2019-05-05T17:29:50.269Z,12.40
2019-05-05T17:32:16.669Z,12.40
2019-05-05T17:34:44.779Z,12.40
2019-05-05T17:37:11.226Z,12.30
2019-05-05T17:39:39.596Z,12.20
2019-05-05T17:42:24.930Z,12.10
2019-05-05T17:45:10.213Z,12.00
2019-05-05T17:47:41.525Z,12.00
2019-05-05T17:50:17.044Z,11.90
2019-05-05T17:52:48.395Z,11.80
2019-05-05T17:55:28.663Z,11.80
2019-05-05T17:58:01.561Z,11.80
2019-05-05T18:00:25.346Z,11.80
2019-05-05T18:02:53.453Z,11.80
2019-05-05T18:05:21.896Z,11.80
2019-05-05T18:07:49.811Z,11.70
2019-05-05T18:10:23.986Z,11.60
2019-05-05T18:13:07.277Z,11.50
2019-05-05T18:15:50.503Z,11.50
2019-05-05T18:18:17.997Z,11.40
2019-05-05T18:20:44.935Z,11.30
2019-05-05T18:23:13.748Z,11.10
2019-05-05T18:25:39.858Z,11.10
2019-05-05T18:28:16.129Z,10.90
2019-05-05T18:30:34.586Z,10.70
2019-05-05T18:33:01.370Z,10.60
2019-05-05T18:35:27.865Z,10.40
2019-05-05T18:37:54.447Z,10.20
2019-05-05T18:40:21.200Z,10.10
2019-05-05T18:42:47.735Z,9.90
2019-05-05T18:45:19.325Z,9.80
2019-05-05T18:47:45.704Z,9.60
2019-05-05T18:50:13.618Z,9.50
2019-05-05T18:52:40.291Z,9.20
2019-05-05T18:55:07.398Z,9.00
2019-05-05T18:57:34.254Z,8.80
2019-05-05T19:00:00.833Z,8.60
2019-05-05T19:02:44.409Z,8.40
2019-05-05T19:05:16.181Z,8.40
2019-05-05T19:07:55.397Z,8.30
2019-05-05T19:10:16.304Z,8.20
2019-05-05T19:12:44.279Z,8.10
2019-05-05T19:15:10.895Z,7.90
2019-05-05T19:17:37.435Z,7.70
2019-05-05T19:20:12.232Z,7.70
2019-05-05T19:22:38.892Z,7.50
2019-05-05T19:25:14.596Z,7.50
2019-05-05T19:27:44.795Z,7.40
2019-05-05T19:30:14.738Z,7.20
2019-05-05T19:32:41.280Z,7.00
2019-05-05T19:35:07.912Z,6.90
2019-05-05T19:37:34.574Z,6.70
2019-05-05T19:40:01.759Z,6.60
2019-05-05T19:42:28.424Z,6.50
2019-05-05T19:44:54.886Z,6.50
2019-05-05T19:47:21.672Z,6.40
2019-05-05T19:49:50.023Z,6.30
2019-05-05T19:52:16.429Z,6.20
2019-05-05T19:54:46.849Z,6.20
2019-05-05T19:57:11.330Z,6.10
2019-05-05T19:59:38.029Z,6.00
2019-05-05T20:02:05.820Z,5.90
2019-05-05T20:04:33.703Z,5.70
2019-05-05T20:07:00.376Z,5.60
2019-05-05T20:09:26.962Z,5.60
2019-05-05T20:11:54.497Z,5.50
2019-05-05T20:14:21.109Z,5.40
2019-05-05T20:16:58.537Z,5.40
2019-05-05T20:19:24.969Z,5.40
2019-05-05T20:21:51.555Z,5.30
2019-05-05T20:24:17.941Z,5.20
2019-05-05T20:26:44.551Z,5.10
2019-05-05T20:29:14.397Z,5.00
2019-05-05T20:31:39.175Z,4.90
2019-05-05T20:34:07.424Z,4.90
2019-05-05T20:36:35.833Z,4.60
2019-05-05T20:39:05.360Z,4.60
2019-05-05T20:41:33.922Z,4.60
2019-05-05T20:44:00.425Z,4.50
2019-05-05T20:46:26.851Z,4.50
2019-05-05T20:48:54.453Z,4.40
2019-05-05T20:51:21.168Z,4.40
2019-05-05T20:53:49.229Z,4.40
2019-05-05T20:56:16.024Z,4.20
2019-05-05T20:58:43.965Z,4.20
2019-05-05T21:01:10.491Z,4.10
2019-05-05T21:03:36.922Z,4.10
2019-05-05T21:06:04.444Z,4.00
2019-05-05T21:08:31.414Z,4.00
2019-05-05T21:10:57.800Z,3.90
2019-05-05T21:13:24.213Z,3.80
2019-05-05T21:15:50.883Z,3.80
2019-05-05T21:18:17.653Z,3.80
2019-05-05T21:20:44.104Z,3.70
2019-05-05T21:23:14.362Z,3.70
2019-05-05T21:25:57.941Z,3.50
2019-05-05T21:28:24.330Z,3.50
2019-05-05T21:30:51.136Z,3.40
2019-05-05T21:33:17.866Z,3.50
2019-05-05T21:35:44.377Z,3.30
2019-05-05T21:38:10.787Z,3.10
2019-05-05T21:40:37.263Z,3.00
2019-05-05T21:43:05.016Z,3.10
2019-05-05T21:45:34.477Z,3.00
2019-05-05T21:48:00.759Z,3.10
2019-05-05T21:50:40.918Z,3.10
2019-05-05T21:53:09.248Z,3.00
2019-05-05T21:55:43.860Z,2.90
2019-05-05T21:58:13.626Z,2.80
2019-05-05T22:00:51.843Z,2.90
2019-05-05T22:03:23.680Z,2.80
2019-05-05T22:05:50.260Z,2.80
2019-05-05T22:08:16.762Z,2.80
2019-05-05T22:10:43.226Z,2.60
2019-05-05T22:13:09.624Z,2.50
2019-05-05T22:15:35.984Z,2.50
2019-05-05T22:18:03.689Z,2.40
2019-05-05T22:20:33.971Z,2.30
2019-05-05T22:23:00.596Z,2.30
2019-05-05T22:25:28.255Z,2.30
2019-05-05T22:27:54.642Z,2.30
2019-05-05T22:30:21.064Z,2.20
2019-05-05T22:32:47.457Z,2.30
2019-05-05T22:35:14.091Z,2.30
2019-05-05T22:37:43.803Z,2.20
2019-05-05T22:40:18.653Z,1.90
2019-05-05T22:42:44.956Z,2.00
2019-05-05T22:45:11.670Z,1.80
2019-05-05T22:47:39.076Z,1.80
2019-05-05T22:50:05.793Z,1.70
2019-05-05T22:52:34.342Z,1.70
2019-05-05T22:55:00.905Z,1.60
2019-05-05T22:57:27.303Z,1.50
2019-05-05T22:59:54.131Z,1.50
2019-05-05T23:02:24.440Z,1.50
2019-05-05T23:04:54.524Z,1.40
2019-05-05T23:07:24.064Z,1.40
2019-05-05T23:09:50.581Z,1.40
2019-05-05T23:12:16.995Z,1.40
2019-05-05T23:14:43.776Z,1.30
2019-05-05T23:17:14.786Z,1.30
2019-05-05T23:19:45.854Z,1.30
2019-05-05T23:22:34.688Z,1.30
2019-05-05T23:25:04.109Z,1.20
2019-05-05T23:27:46.169Z,1.10
2019-05-05T23:30:15.776Z,1.00
2019-05-05T23:32:40.993Z,1.00
2019-05-05T23:35:07.518Z,1.00
2019-05-05T23:37:34.343Z,1.10
2019-05-05T23:40:00.835Z,1.10
2019-05-05T23:42:27.180Z,1.00
2019-05-05T23:44:53.652Z,0.90
2019-05-05T23:47:20.003Z,0.80
2019-05-05T23:49:46.442Z,0.80
2019-05-05T23:52:14.308Z,0.80
2019-05-05T23:54:40.760Z,0.80
2019-05-05T23:57:07.196Z,0.80
2019-05-05T23:59:33.617Z,0.70
